Time;durP1;ratioP1;P1;durP2;ratioP2;P2;SDS_P1;SDS_P2;PMS_P1;PMS_P2;Temp;Humidity;BMP_temperature;BMP_pressure;BME280_temperature;BME280_humidity;BME280_pressure;Samples;Min_cycle;Max_cycle;Signal;HPM_P1;HPM_P2
2022/03/09 00:01:20;;;;;;;20.53;11.37;;;;;;;-1.64;77.33;101598.97;4997579;28;20046;-71
2022/03/09 00:03:46;;;;;;;18.23;10.27;;;;;;;-1.62;76.27;101597.38;5000122;28;20042;-71
2022/03/09 00:06:11;;;;;;;18.20;10.73;;;;;;;-1.61;76.56;101597.44;4999513;28;20031;-71
2022/03/09 00:08:36;;;;;;;18.27;9.97;;;;;;;-1.61;75.71;101596.56;4998307;28;20041;-71
2022/03/09 00:11:02;;;;;;;16.67;10.30;;;;;;;-1.61;76.31;101593.97;5000422;28;20044;-71
2022/03/09 00:13:27;;;;;;;17.13;9.70;;;;;;;-1.61;76.82;101599.16;4997952;28;20927;-72
2022/03/09 00:15:53;;;;;;;15.30;9.47;;;;;;;-1.67;77.08;101596.19;5000314;28;20083;-71
2022/03/09 00:18:19;;;;;;;18.67;10.77;;;;;;;-1.65;76.92;101598.09;5023772;28;20048;-71
2022/03/09 00:20:45;;;;;;;19.47;10.07;;;;;;;-1.60;76.77;101593.16;4997689;28;20079;-71
2022/03/09 00:23:11;;;;;;;18.03;9.10;;;;;;;-1.58;76.44;101601.91;5012202;28;20034;-72
2022/03/09 00:25:36;;;;;;;15.47;9.13;;;;;;;-1.58;77.19;101599.31;5026009;28;20057;-71
2022/03/09 00:28:01;;;;;;;14.50;8.43;;;;;;;-1.58;77.39;101594.16;5012696;28;20045;-72
2022/03/09 00:30:27;;;;;;;15.20;8.40;;;;;;;-1.56;77.44;101589.97;4998061;28;20095;-71
2022/03/09 00:32:52;;;;;;;13.60;8.37;;;;;;;-1.50;77.86;101579.06;4996536;28;20035;-72
2022/03/09 00:35:17;;;;;;;17.93;9.33;;;;;;;-1.48;77.75;101583.53;5000245;28;20037;-71
2022/03/09 00:37:43;;;;;;;18.10;8.53;;;;;;;-1.51;77.50;101591.13;4998323;28;20038;-71
2022/03/09 00:40:08;;;;;;;19.33;10.23;;;;;;;-1.57;77.35;101590.78;4998525;28;20042;-72
2022/03/09 00:42:38;;;;;;;18.17;9.10;;;;;;;-1.61;77.33;101591.38;4999697;28;20069;-72
2022/03/09 00:45:05;;;;;;;21.73;10.17;;;;;;;-1.67;78.12;101593.59;4997689;28;20034;-71
2022/03/09 00:47:30;;;;;;;15.47;9.27;;;;;;;-1.75;77.99;101594.84;4998847;28;20049;-71
2022/03/09 00:49:56;;;;;;;16.10;9.60;;;;;;;-1.72;77.96;101590.75;4999394;28;20026;-72
2022/03/09 00:52:21;;;;;;;15.17;8.10;;;;;;;-1.68;76.29;101594.38;4996956;28;20147;-71
2022/03/09 00:54:47;;;;;;;19.93;11.33;;;;;;;-1.82;78.03;101591.88;4997066;28;20042;-71
2022/03/09 00:57:13;;;;;;;16.90;9.87;;;;;;;-1.90;77.62;101603.44;5001726;28;20776;-71
2022/03/09 00:59:39;;;;;;;17.50;9.93;;;;;;;-1.92;77.81;101601.56;5002547;28;20030;-71
2022/03/09 01:02:04;;;;;;;18.63;10.97;;;;;;;-1.94;77.17;101611.81;4999646;28;20480;-71
2022/03/09 01:04:30;;;;;;;17.97;9.73;;;;;;;-1.96;77.11;101608.25;5003601;28;20034;-71
2022/03/09 01:06:55;;;;;;;17.40;9.47;;;;;;;-1.94;78.11;101608.34;5000923;28;20381;-71
2022/03/09 01:09:20;;;;;;;21.70;11.67;;;;;;;-1.96;77.13;101605.66;5002198;28;20046;-71
2022/03/09 01:11:45;;;;;;;18.67;9.60;;;;;;;-1.94;77.74;101606.63;5002280;28;20037;-71
2022/03/09 01:14:11;;;;;;;19.53;10.47;;;;;;;-1.93;77.32;101600.69;5000470;28;20057;-71
2022/03/09 01:16:36;;;;;;;19.07;10.03;;;;;;;-1.92;77.80;101588.63;5003420;28;20041;-71
2022/03/09 01:19:01;;;;;;;15.67;8.83;;;;;;;-1.90;77.63;101592.22;5001158;28;20031;-71
2022/03/09 01:21:27;;;;;;;13.93;7.47;;;;;;;-1.90;77.09;101589.63;5001517;28;20166;-71
2022/03/09 01:23:52;;;;;;;17.90;9.80;;;;;;;-1.90;77.57;101594.81;5002512;28;20038;-72
2022/03/09 01:26:17;;;;;;;17.73;9.93;;;;;;;-1.93;77.65;101587.75;5000193;28;20034;-72
2022/03/09 01:28:43;;;;;;;17.87;9.93;;;;;;;-2.02;77.63;101580.31;5003090;28;20045;-72
2022/03/09 01:31:08;;;;;;;18.00;9.10;;;;;;;-2.00;77.95;101589.03;4997837;28;20038;-72
2022/03/09 01:33:34;;;;;;;13.17;7.30;;;;;;;-1.98;77.23;101592.63;5001193;28;20038;-71
2022/03/09 01:35:59;;;;;;;19.13;8.90;;;;;;;-1.98;77.09;101597.81;5002751;28;20142;-72
2022/03/09 01:38:24;;;;;;;18.20;9.07;;;;;;;-1.97;76.72;101590.94;5000084;28;20069;-71
2022/03/09 01:40:50;;;;;;;15.47;8.93;;;;;;;-1.98;77.52;101595.22;5002393;28;20033;-70
2022/03/09 01:43:16;;;;;;;14.33;8.20;;;;;;;-1.98;77.66;101587.44;5004748;28;20026;-71
2022/03/09 01:45:41;;;;;;;17.03;8.27;;;;;;;-2.01;76.93;101589.84;5000705;28;20035;-71
2022/03/09 01:48:06;;;;;;;14.93;7.83;;;;;;;-2.00;77.67;101590.75;5003178;28;20038;-71
2022/03/09 01:50:32;;;;;;;13.97;8.03;;;;;;;-2.01;77.51;101578.63;4999940;28;20035;-72
2022/03/09 01:52:57;;;;;;;12.80;7.37;;;;;;;-2.03;77.25;101582.81;5014977;28;20032;-71
2022/03/09 01:55:23;;;;;;;14.53;7.20;;;;;;;-2.02;76.84;101584.56;5014869;28;20476;-71
2022/03/09 01:57:48;;;;;;;15.13;7.30;;;;;;;-2.02;77.17;101587.16;5002187;28;20540;-71
2022/03/09 02:00:14;;;;;;;14.87;7.47;;;;;;;-2.03;76.40;101586.28;5002288;28;20037;-71
2022/03/09 02:02:40;;;;;;;12.83;7.33;;;;;;;-2.11;76.83;101590.09;5005696;28;20037;-71
2022/03/09 02:05:06;;;;;;;14.60;7.67;;;;;;;-2.15;77.18;101594.97;5016701;28;20539;-71
2022/03/09 02:10:20;;;;;;;13.90;6.97;;;;;;;-2.21;77.45;101586.03;5001854;28;20038;-71
2022/03/09 02:12:45;;;;;;;17.87;8.20;;;;;;;-2.24;77.27;101580.66;4999284;28;20073;-71
2022/03/09 02:15:11;;;;;;;18.97;9.43;;;;;;;-2.23;77.70;101579.91;5002144;28;20804;-71
2022/03/09 02:17:36;;;;;;;15.27;8.80;;;;;;;-2.25;76.76;101580.59;5000523;28;20088;-71
2022/03/09 02:20:03;;;;;;;16.13;8.30;;;;;;;-2.33;76.80;101584.38;5004308;28;20034;-71
2022/03/09 02:22:35;;;;;;;13.87;8.37;;;;;;;-2.38;77.89;101580.59;5007396;28;20041;-71
2022/03/09 02:25:03;;;;;;;17.10;8.80;;;;;;;-2.39;77.81;101581.41;5000142;28;20041;-71
2022/03/09 02:27:29;;;;;;;12.73;7.63;;;;;;;-2.40;77.76;101583.09;5000658;28;20046;-72
2022/03/09 02:29:55;;;;;;;13.13;7.50;;;;;;;-2.44;76.91;101576.88;4999983;28;20038;-71
2022/03/09 02:32:22;;;;;;;15.83;8.77;;;;;;;-2.52;76.81;101578.03;5000356;28;20083;-72
2022/03/09 02:34:47;;;;;;;15.10;8.37;;;;;;;-2.51;77.67;101573.78;5007792;28;20045;-71
2022/03/09 02:37:13;;;;;;;15.90;8.30;;;;;;;-2.50;77.05;101575.56;4985922;28;20630;-72
2022/03/09 02:39:38;;;;;;;13.63;7.67;;;;;;;-2.51;77.90;101578.97;5026982;28;20042;-71
2022/03/09 02:42:04;;;;;;;15.90;8.43;;;;;;;-2.51;77.08;101578.97;5001871;28;20034;-71
2022/03/09 02:44:30;;;;;;;16.23;7.90;;;;;;;-2.53;77.57;101575.38;4999447;28;20038;-71
2022/03/09 02:46:56;;;;;;;16.43;8.57;;;;;;;-2.61;76.88;101574.88;5000576;28;20385;-72
2022/03/09 02:49:21;;;;;;;15.47;8.00;;;;;;;-2.66;77.16;101573.72;5022009;28;20041;-72
2022/03/09 02:51:47;;;;;;;16.70;8.37;;;;;;;-2.68;77.13;101581.34;5034348;28;20088;-72
2022/03/09 02:54:13;;;;;;;13.33;8.00;;;;;;;-2.70;78.23;101577.78;5001578;28;20038;-72
2022/03/09 02:56:38;;;;;;;16.73;8.77;;;;;;;-2.71;78.22;101576.00;4996233;28;20113;-72
2022/03/09 02:59:03;;;;;;;15.33;8.67;;;;;;;-2.72;78.56;101574.22;5015042;28;20127;-71
2022/03/09 03:01:29;;;;;;;14.03;8.40;;;;;;;-2.75;78.50;101575.69;5001278;28;20038;-71
2022/03/09 03:03:54;;;;;;;14.37;7.90;;;;;;;-2.80;77.78;101578.00;4998715;28;20034;-71
2022/03/09 03:06:20;;;;;;;19.57;8.63;;;;;;;-2.88;78.46;101581.78;5000943;28;20411;-71
2022/03/09 03:08:45;;;;;;;15.27;8.17;;;;;;;-2.90;77.34;101578.19;5017381;28;20042;-72
2022/03/09 03:11:11;;;;;;;17.20;9.17;;;;;;;-2.91;78.61;101577.31;5010546;28;20034;-71
2022/03/09 03:13:39;;;;;;;16.50;7.80;;;;;;;-2.86;78.17;101577.59;4997239;28;20053;-71
2022/03/09 03:16:06;;;;;;;17.50;7.90;;;;;;;-2.88;78.48;101577.50;5001296;28;20026;-71
2022/03/09 03:18:32;;;;;;;15.73;8.13;;;;;;;-2.87;78.04;101570.63;4999245;28;20061;-71
2022/03/09 03:20:58;;;;;;;11.93;6.53;;;;;;;-2.91;77.94;101571.22;4998991;28;20048;-72
2022/03/09 03:23:26;;;;;;;15.33;8.33;;;;;;;-2.96;78.28;101572.63;5041130;28;20041;-71
2022/03/09 03:25:52;;;;;;;15.57;8.03;;;;;;;-3.04;77.88;101573.81;5012445;28;20485;-71
2022/03/09 03:28:19;;;;;;;14.00;8.17;;;;;;;-3.07;79.03;101571.91;4999585;28;20030;-71
2022/03/09 03:30:45;;;;;;;13.43;8.37;;;;;;;-3.06;79.62;101573.72;5024615;28;20030;-72
2022/03/09 03:33:11;;;;;;;17.03;8.57;;;;;;;-3.03;79.38;101571.34;5028525;27;20053;-71
2022/03/09 03:35:36;;;;;;;13.97;7.90;;;;;;;-3.00;78.95;101570.66;4998860;28;20027;-71
2022/03/09 03:38:01;;;;;;;13.87;7.67;;;;;;;-2.98;79.12;101572.53;4999884;28;20563;-72
2022/03/09 03:40:27;;;;;;;13.50;8.13;;;;;;;-2.97;79.23;101570.84;5000370;28;20030;-71
2022/03/09 03:42:52;;;;;;;13.87;7.00;;;;;;;-2.94;78.40;101571.91;4997920;28;20095;-71
2022/03/09 03:45:17;;;;;;;14.90;8.60;;;;;;;-2.92;78.49;101574.63;4998079;28;20094;-71
2022/03/09 03:47:43;;;;;;;14.83;8.60;;;;;;;-2.92;78.95;101574.63;5000134;28;20030;-71
2022/03/09 03:50:09;;;;;;;13.87;6.97;;;;;;;-2.93;78.53;101578.91;4999675;28;20404;-72
2022/03/09 03:52:34;;;;;;;21.70;8.20;;;;;;;-2.97;78.38;101581.16;4998308;28;20510;-72
2022/03/09 03:54:59;;;;;;;12.73;7.53;;;;;;;-3.00;78.22;101568.94;5016112;28;20547;-72
2022/03/09 03:57:25;;;;;;;13.50;7.70;;;;;;;-3.00;78.83;101570.66;5001420;28;20055;-72
2022/03/09 03:59:50;;;;;;;17.13;8.57;;;;;;;-3.03;78.66;101570.44;4999762;28;20046;-72
2022/03/09 04:02:15;;;;;;;16.03;8.67;;;;;;;-3.04;77.81;101571.22;4999494;28;20041;-72
2022/03/09 04:04:41;;;;;;;12.47;7.37;;;;;;;-3.08;77.63;101565.88;5001973;28;20481;-72
2022/03/09 04:07:06;;;;;;;14.37;7.80;;;;;;;-3.11;78.12;101570.84;5000702;28;20063;-72
2022/03/09 04:09:32;;;;;;;16.53;8.27;;;;;;;-3.11;78.72;101567.38;4998451;28;20030;-72
2022/03/09 04:11:57;;;;;;;16.77;8.53;;;;;;;-3.06;79.24;101578.00;4999089;28;20472;-72
2022/03/09 04:14:22;;;;;;;14.83;8.10;;;;;;;-3.03;79.24;101580.78;4999927;28;20435;-72
2022/03/09 04:16:50;;;;;;;13.47;7.40;;;;;;;-3.02;79.21;101580.88;4997679;28;20446;-72
2022/03/09 04:19:16;;;;;;;13.43;7.27;;;;;;;-3.01;78.95;101576.59;5000170;28;20045;-72
2022/03/09 04:21:42;;;;;;;25.43;12.93;;;;;;;-3.03;78.78;101580.78;5013906;28;20144;-72
2022/03/09 04:24:08;;;;;;;19.97;11.33;;;;;;;-3.03;78.97;101581.66;4998065;28;20113;-71
2022/03/09 04:26:33;;;;;;;20.47;10.33;;;;;;;-3.00;78.68;101578.41;4996602;28;20488;-72
2022/03/09 04:28:59;;;;;;;16.40;9.20;;;;;;;-3.01;78.34;101571.41;5000261;28;20033;-72
2022/03/09 04:31:25;;;;;;;20.30;10.73;;;;;;;-3.04;78.10;101578.97;4998054;28;20107;-72
2022/03/09 04:33:50;;;;;;;20.43;10.67;;;;;;;-3.19;77.29;101574.59;4998558;28;20069;-72
2022/03/09 04:36:16;;;;;;;16.77;9.37;;;;;;;-3.32;76.65;101577.19;5000043;28;20480;-72
2022/03/09 04:38:41;;;;;;;18.17;10.13;;;;;;;-3.37;77.70;101570.81;4997313;28;20121;-71
2022/03/09 04:41:07;;;;;;;18.00;10.10;;;;;;;-3.37;77.58;101578.56;4999430;28;20144;-72
2022/03/09 04:43:32;;;;;;;19.63;8.90;;;;;;;-3.36;78.46;101577.75;4998578;28;20034;-72
2022/03/09 04:45:58;;;;;;;20.37;9.50;;;;;;;-3.34;78.64;101584.81;4998158;28;20129;-72
2022/03/09 04:48:23;;;;;;;15.20;7.67;;;;;;;-3.35;78.96;101587.31;5000112;28;20034;-73
2022/03/09 04:50:48;;;;;;;18.87;9.53;;;;;;;-3.31;78.75;101591.84;4997278;28;20034;-72
2022/03/09 04:53:14;;;;;;;14.43;8.60;;;;;;;-3.33;78.77;101588.28;4996238;28;20034;-72
2022/03/09 04:55:39;;;;;;;18.30;9.50;;;;;;;-3.32;78.76;101592.66;5005235;28;20187;-72
2022/03/09 04:58:04;;;;;;;13.20;8.23;;;;;;;-3.29;78.48;101597.13;5000793;28;20125;-72
2022/03/09 05:00:30;;;;;;;15.23;9.13;;;;;;;-3.29;79.23;101600.59;4996968;28;20038;-73
2022/03/09 05:02:56;;;;;;;20.47;9.53;;;;;;;-3.28;78.42;101612.72;5030306;28;20036;-71
2022/03/09 05:05:22;;;;;;;17.27;10.20;;;;;;;-3.28;79.58;101611.81;5016334;28;20062;-72
2022/03/09 05:07:47;;;;;;;20.83;9.53;;;;;;;-3.26;78.37;101618.88;5021609;28;20057;-72
2022/03/09 05:10:12;;;;;;;16.80;9.07;;;;;;;-3.28;78.50;101615.28;4999928;28;20049;-72
2022/03/09 05:12:38;;;;;;;17.73;9.67;;;;;;;-3.28;78.89;101625.63;4996647;28;20035;-72
2022/03/09 05:15:04;;;;;;;15.30;9.07;;;;;;;-3.28;78.10;101628.19;4997638;28;20140;-72
2022/03/09 05:17:30;;;;;;;15.90;9.20;;;;;;;-3.30;78.12;101629.81;4998551;28;20049;-72
2022/03/09 05:19:55;;;;;;;17.27;9.43;;;;;;;-3.37;77.93;101638.81;5012655;28;20036;-72
2022/03/09 05:22:21;;;;;;;18.03;8.83;;;;;;;-3.40;78.22;101637.72;5026910;28;20113;-72
2022/03/09 05:24:46;;;;;;;18.77;9.90;;;;;;;-3.39;78.70;101635.22;5021792;28;20480;-72
2022/03/09 05:27:12;;;;;;;18.97;11.70;;;;;;;-3.35;78.48;101623.44;4998525;28;20041;-73
2022/03/09 05:29:37;;;;;;;18.67;8.90;;;;;;;-3.33;78.13;101622.75;4998773;28;20087;-72
2022/03/09 05:32:04;;;;;;;15.37;8.67;;;;;;;-3.32;78.35;101623.66;5002036;28;20462;-72
2022/03/09 05:34:29;;;;;;;16.77;9.70;;;;;;;-3.34;77.88;101626.09;5020751;28;20553;-73
2022/03/09 05:36:55;;;;;;;19.07;10.63;;;;;;;-3.38;78.36;101631.88;5057552;28;20035;-72
2022/03/09 05:39:20;;;;;;;17.20;9.90;;;;;;;-3.41;78.61;101643.66;5003333;28;20050;-72
2022/03/09 05:41:47;;;;;;;15.60;9.20;;;;;;;-3.41;78.08;101647.13;5052349;28;20084;-72
2022/03/09 05:44:13;;;;;;;15.10;7.57;;;;;;;-3.42;78.76;101640.19;5012029;28;20042;-72
2022/03/09 05:46:39;;;;;;;18.53;8.83;;;;;;;-3.38;78.16;101641.28;5009402;28;20113;-72
2022/03/09 05:49:05;;;;;;;17.03;9.53;;;;;;;-3.34;78.47;101651.03;5015367;28;20070;-72
2022/03/09 05:51:31;;;;;;;18.03;10.00;;;;;;;-3.29;78.63;101641.91;5013488;28;20056;-73
2022/03/09 05:53:57;;;;;;;17.13;10.00;;;;;;;-3.23;78.17;101644.00;5014465;28;20451;-72
2022/03/09 05:56:23;;;;;;;18.23;9.53;;;;;;;-3.20;77.18;101645.09;5029608;28;20037;-72
2022/03/09 05:58:48;;;;;;;18.30;9.10;;;;;;;-3.19;77.56;101646.03;5053096;28;20118;-72
2022/03/09 06:01:14;;;;;;;15.93;9.23;;;;;;;-3.21;77.98;101643.31;5048463;28;20038;-72
2022/03/09 06:03:39;;;;;;;16.90;10.07;;;;;;;-3.17;78.41;101647.00;5016813;28;20047;-72
2022/03/09 06:06:04;;;;;;;15.63;10.03;;;;;;;-3.21;78.76;101648.47;5012663;28;20038;-72
2022/03/09 06:08:31;;;;;;;16.00;10.27;;;;;;;-3.10;78.51;101652.66;5026428;28;20428;-72
2022/03/09 06:10:56;;;;;;;20.47;10.23;;;;;;;-3.00;78.73;101651.59;5023000;28;20440;-72
2022/03/09 06:13:21;;;;;;;19.87;9.33;;;;;;;-2.97;77.91;101645.75;5010822;28;20163;-72
2022/03/09 06:15:48;;;;;;;17.60;10.10;;;;;;;-2.87;77.58;101650.72;5042055;28;20438;-72
2022/03/09 06:18:13;;;;;;;18.77;10.17;;;;;;;-2.75;78.07;101661.88;5001830;28;20046;-72
2022/03/09 06:20:39;;;;;;;21.07;11.10;;;;;;;-2.70;78.04;101660.50;5000639;28;20088;-72
2022/03/09 06:23:04;;;;;;;22.27;12.37;;;;;;;-2.73;76.38;101664.53;4998611;28;20060;-72
2022/03/09 06:25:30;;;;;;;27.53;14.33;;;;;;;-2.85;76.26;101668.94;5002269;28;20445;-72
2022/03/09 06:27:56;;;;;;;25.43;15.47;;;;;;;-2.77;76.83;101668.63;4999417;28;20035;-72
2022/03/09 06:30:21;;;;;;;24.70;15.10;;;;;;;-2.70;76.82;101665.66;5000595;28;20491;-72
2022/03/09 06:32:47;;;;;;;23.50;13.77;;;;;;;-2.55;76.67;101664.84;4999504;28;20038;-72
2022/03/09 06:35:14;;;;;;;21.57;12.90;;;;;;;-2.38;77.64;101665.91;4997784;28;20034;-72
2022/03/09 06:37:40;;;;;;;22.30;13.73;;;;;;;-2.24;77.37;101670.28;5000879;28;20645;-72
2022/03/09 06:40:07;;;;;;;27.40;14.30;;;;;;;-2.09;76.79;101673.84;4998739;28;20042;-72
2022/03/09 06:42:33;;;;;;;24.20;14.37;;;;;;;-1.95;76.81;101679.88;4998634;28;20057;-72
2022/03/09 06:44:58;;;;;;;27.47;13.53;;;;;;;-1.81;77.01;101676.47;5000453;28;20034;-72
2022/03/09 06:47:24;;;;;;;20.77;11.30;;;;;;;-1.68;76.71;101678.09;4998832;28;20037;-72
2022/03/09 06:49:49;;;;;;;24.20;12.30;;;;;;;-1.65;76.53;101685.16;5014188;28;20491;-72
2022/03/09 06:52:17;;;;;;;22.43;12.23;;;;;;;-1.58;76.01;101689.94;5027452;28;20461;-72
2022/03/09 06:54:42;;;;;;;25.17;12.83;;;;;;;-1.51;75.71;101681.75;5033208;28;20113;-72
2022/03/09 06:57:08;;;;;;;24.33;12.23;;;;;;;-1.40;75.42;101670.34;5000361;28;20041;-72
2022/03/09 06:59:33;;;;;;;24.17;12.77;;;;;;;-1.27;75.81;101678.84;4999854;28;20041;-72
2022/03/09 07:01:59;;;;;;;23.77;12.90;;;;;;;-1.15;75.26;101680.47;5039574;28;20446;-72
2022/03/09 07:04:24;;;;;;;21.10;12.07;;;;;;;-0.98;75.53;101676.28;4999456;28;20046;-72
2022/03/09 07:06:49;;;;;;;21.50;11.67;;;;;;;-0.83;75.34;101680.59;5001573;28;20068;-72
2022/03/09 07:09:15;;;;;;;22.70;13.17;;;;;;;-0.72;74.83;101674.31;4998652;28;20042;-72
2022/03/09 07:11:44;;;;;;;24.33;14.20;;;;;;;-0.61;75.06;101683.59;5010580;28;20055;-72
2022/03/09 07:14:11;;;;;;;27.13;15.53;;;;;;;-0.51;75.46;101687.63;5021951;28;20046;-72
2022/03/09 07:16:36;;;;;;;25.67;13.53;;;;;;;-0.37;75.59;101685.78;5014913;28;20479;-72
2022/03/09 07:19:02;;;;;;;21.70;12.87;;;;;;;-0.23;75.46;101687.47;5021077;28;20041;-72
2022/03/09 07:21:29;;;;;;;21.27;12.97;;;;;;;-0.08;74.76;101688.34;5012418;28;20060;-72
2022/03/09 07:23:54;;;;;;;20.30;12.27;;;;;;;0.03;74.71;101685.41;5011862;28;20038;-72
2022/03/09 07:26:20;;;;;;;22.53;12.17;;;;;;;0.14;74.72;101690.41;5024163;28;20042;-72
2022/03/09 07:28:45;;;;;;;32.50;20.60;;;;;;;0.31;74.65;101683.50;5024737;28;20539;-72
2022/03/09 07:31:10;;;;;;;32.93;20.50;;;;;;;0.46;75.20;101691.25;5000319;28;20129;-72
2022/03/09 07:33:36;;;;;;;22.63;13.77;;;;;;;0.60;74.51;101682.47;4999704;28;20113;-72
2022/03/09 07:36:02;;;;;;;21.47;11.70;;;;;;;0.64;73.83;101686.13;4998994;28;20117;-72
2022/03/09 07:38:28;;;;;;;22.57;13.00;;;;;;;0.77;73.67;101691.16;5001069;28;20046;-72
2022/03/09 07:40:53;;;;;;;19.92;11.07;;;;;;;0.92;73.32;101684.94;4998112;28;20065;-72
2022/03/09 07:43:20;;;;;;;17.80;10.10;;;;;;;1.06;72.27;101684.84;4999653;28;20106;-72
2022/03/09 07:45:46;;;;;;;13.77;9.38;;;;;;;1.21;72.49;101682.13;5000053;28;20480;-72
2022/03/09 07:48:12;;;;;;;14.98;9.25;;;;;;;1.33;71.87;101676.63;5001535;28;20037;-72
2022/03/09 07:50:38;;;;;;;16.63;9.90;;;;;;;1.43;71.44;101676.28;5013279;28;20396;-72
2022/03/09 07:53:06;;;;;;;18.92;9.55;;;;;;;1.52;71.57;101688.88;5002126;28;20111;-72
2022/03/09 07:55:31;;;;;;;19.85;8.77;;;;;;;1.58;71.10;101686.53;5012169;28;20110;-72
2022/03/09 07:57:56;;;;;;;14.25;7.72;;;;;;;1.74;70.39;101688.19;5015860;28;20118;-72
2022/03/09 08:00:22;;;;;;;17.48;9.73;;;;;;;1.90;70.46;101684.59;5002843;28;20065;-72
2022/03/09 08:02:48;;;;;;;14.00;7.88;;;;;;;2.01;69.05;101685.09;4998340;28;20042;-73
2022/03/09 08:05:15;;;;;;;14.27;7.85;;;;;;;2.11;69.00;101682.09;4998418;28;20034;-72
2022/03/09 08:07:41;;;;;;;14.55;7.78;;;;;;;2.17;68.56;101690.19;5000526;28;20488;-72
2022/03/09 08:10:06;;;;;;;17.23;8.57;;;;;;;2.26;68.54;101694.97;5012701;28;20091;-72
2022/03/09 08:12:34;;;;;;;12.95;8.02;;;;;;;2.33;68.59;101686.59;4999724;28;20686;-72
2022/03/09 08:15:01;;;;;;;13.98;8.02;;;;;;;2.41;67.96;101686.13;5004005;28;20036;-72
2022/03/09 08:17:26;;;;;;;15.10;7.65;;;;;;;2.49;68.04;101690.78;5000256;28;20034;-72
2022/03/09 08:19:51;;;;;;;14.02;8.20;;;;;;;2.57;67.80;101686.81;5011552;28;20075;-73
2022/03/09 08:22:17;;;;;;;13.77;7.63;;;;;;;2.72;67.92;101694.41;5016315;28;20038;-72
2022/03/09 08:24:42;;;;;;;13.95;7.72;;;;;;;2.83;67.77;101701.91;5031242;28;20108;-73
2022/03/09 08:27:07;;;;;;;17.70;7.20;;;;;;;2.98;67.56;101698.16;5025048;28;20030;-73
2022/03/09 08:29:32;;;;;;;15.00;8.50;;;;;;;3.10;67.25;101697.81;5014820;28;20034;-73
2022/03/09 08:31:58;;;;;;;15.07;7.82;;;;;;;3.22;66.81;101703.53;5015883;28;20031;-73
2022/03/09 08:34:23;;;;;;;12.13;7.13;;;;;;;3.34;66.28;101698.84;5038549;27;20049;-73
2022/03/09 08:36:49;;;;;;;10.93;6.93;;;;;;;3.41;65.26;101700.88;4997356;28;20045;-73
2022/03/09 08:39:14;;;;;;;13.73;7.07;;;;;;;3.52;65.03;101701.34;5035081;28;20038;-73
2022/03/09 08:41:39;;;;;;;16.25;7.50;;;;;;;3.60;63.94;101693.81;5009155;28;20664;-73
2022/03/09 08:44:05;;;;;;;13.52;6.47;;;;;;;3.72;63.95;101692.59;5018796;28;20493;-73
2022/03/09 08:46:30;;;;;;;14.18;7.47;;;;;;;3.82;63.65;101696.44;4999066;28;20049;-73
2022/03/09 08:48:57;;;;;;;15.27;8.30;;;;;;;3.93;64.06;101694.28;5015698;28;20034;-73
2022/03/09 08:51:23;;;;;;;12.07;8.00;;;;;;;4.04;63.42;101699.94;4996151;28;20034;-73
2022/03/09 08:53:49;;;;;;;13.02;7.53;;;;;;;4.12;63.14;101699.38;4995997;28;20038;-74
2022/03/09 08:56:14;;;;;;;14.05;7.97;;;;;;;4.21;62.91;101696.22;4999446;28;20536;-73
2022/03/09 08:58:40;;;;;;;12.90;8.95;;;;;;;4.25;62.40;101700.75;5005459;28;20041;-73
2022/03/09 09:01:05;;;;;;;12.07;7.72;;;;;;;4.36;61.63;101698.53;5022205;28;20045;-73
2022/03/09 09:03:31;;;;;;;13.52;7.35;;;;;;;4.46;60.15;101692.81;5003820;28;20042;-73
2022/03/09 09:05:56;;;;;;;13.32;7.85;;;;;;;4.54;60.67;101695.72;5047480;28;20062;-73
2022/03/09 09:08:21;;;;;;;13.57;7.38;;;;;;;4.64;60.91;101692.63;4998678;28;20108;-74
2022/03/09 09:10:48;;;;;;;11.27;6.93;;;;;;;4.74;60.55;101693.81;4999098;28;20129;-73
2022/03/09 09:13:14;;;;;;;11.02;7.05;;;;;;;4.82;60.02;101689.75;5011679;28;20051;-74
2022/03/09 09:15:39;;;;;;;10.82;6.35;;;;;;;4.89;58.34;101685.66;5014085;28;20488;-73
2022/03/09 09:18:06;;;;;;;11.15;6.68;;;;;;;4.97;58.43;101684.19;5037653;28;20028;-73
2022/03/09 09:20:31;;;;;;;13.13;6.45;;;;;;;5.08;57.62;101687.16;5001366;28;20046;-73
2022/03/09 09:22:57;;;;;;;10.88;6.35;;;;;;;5.19;56.86;101689.34;5001041;28;20060;-73
2022/03/09 09:25:25;;;;;;;16.65;6.05;;;;;;;5.28;56.75;101691.38;5006315;28;20462;-74
2022/03/09 09:27:51;;;;;;;14.95;5.82;;;;;;;5.38;56.03;101684.72;5001148;28;20070;-73
2022/03/09 09:30:17;;;;;;;12.73;6.00;;;;;;;5.52;56.06;101680.81;5001200;28;20042;-73
2022/03/09 09:32:43;;;;;;;12.93;7.07;;;;;;;5.66;55.77;101676.06;5003016;28;20036;-73
2022/03/09 09:35:10;;;;;;;10.23;5.15;;;;;;;5.78;55.25;101680.78;4999909;28;20039;-73
2022/03/09 09:37:36;;;;;;;9.68;5.50;;;;;;;5.84;53.91;101675.72;5000782;28;20042;-73
2022/03/09 09:40:02;;;;;;;10.82;4.55;;;;;;;5.92;52.78;101676.84;5001967;28;20081;-74
2022/03/09 09:42:30;;;;;;;9.32;4.93;;;;;;;6.03;53.52;101682.47;5000065;28;20038;-73
2022/03/09 09:44:58;;;;;;;9.90;4.95;;;;;;;6.12;53.27;101678.38;5000183;28;20058;-73
2022/03/09 09:47:24;;;;;;;10.18;5.03;;;;;;;6.27;51.63;101675.34;5000601;28;20453;-73
2022/03/09 09:49:52;;;;;;;10.32;5.20;;;;;;;6.34;50.49;101669.44;5002230;28;20480;-73
2022/03/09 09:52:18;;;;;;;9.18;4.70;;;;;;;6.49;51.43;101673.34;5014439;28;20041;-73
2022/03/09 09:54:43;;;;;;;9.57;4.90;;;;;;;6.57;51.36;101667.47;5006502;28;20395;-73
2022/03/09 09:57:12;;;;;;;9.57;5.10;;;;;;;6.65;50.94;101664.16;5001264;28;20042;-73
2022/03/09 09:59:37;;;;;;;10.30;5.93;;;;;;;6.69;50.44;101660.81;5000276;28;20125;-73
2022/03/09 10:02:06;;;;;;;8.63;4.80;;;;;;;6.82;49.79;101659.41;5003933;28;20183;-73
2022/03/09 10:04:31;;;;;;;9.30;5.18;;;;;;;6.89;50.02;101662.25;5000423;28;20022;-73
2022/03/09 10:06:56;;;;;;;13.70;5.50;;;;;;;6.99;50.38;101659.00;5000913;28;20090;-73
2022/03/09 10:09:22;;;;;;;12.57;6.65;;;;;;;7.01;49.21;101654.69;5025416;28;20403;-73
2022/03/09 10:11:51;;;;;;;12.65;5.78;;;;;;;7.13;49.30;101651.50;5018463;28;20485;-73
2022/03/09 10:14:41;;;;;;;10.98;6.07;;;;;;;7.21;48.71;101649.94;5016308;28;20126;-73
2022/03/09 10:17:17;;;;;;;9.38;5.60;;;;;;;7.30;49.78;101651.91;5030184;28;20130;-73
2022/03/09 10:19:51;;;;;;;9.05;5.28;;;;;;;7.38;48.38;101655.63;5030504;28;20030;-73
2022/03/09 10:22:23;;;;;;;8.75;5.22;;;;;;;7.45;47.17;101646.16;5020485;28;20026;-73
2022/03/09 10:24:48;;;;;;;9.02;5.03;;;;;;;7.55;48.37;101653.41;5018494;28;20385;-73
2022/03/09 10:27:33;;;;;;;10.27;5.88;;;;;;;7.67;47.79;101653.69;5000805;28;20037;-73
2022/03/09 10:29:59;;;;;;;10.02;6.05;;;;;;;7.76;48.10;101655.66;5017304;28;20058;-73
2022/03/09 10:32:44;;;;;;;10.15;4.93;;;;;;;7.84;46.88;101656.72;5026198;28;20518;-72
2022/03/09 10:35:11;;;;;;;8.65;4.25;;;;;;;7.96;47.26;101652.59;5004612;28;20038;-73
2022/03/09 10:37:38;;;;;;;10.75;4.75;;;;;;;8.06;46.67;101652.81;5018962;28;20045;-73
2022/03/09 10:40:19;;;;;;;9.75;4.80;;;;;;;8.14;45.95;101645.09;5001138;28;20420;-73
2022/03/09 10:42:46;;;;;;;7.65;4.22;;;;;;;8.30;47.14;101648.94;5012031;28;20069;-73
2022/03/09 10:45:13;;;;;;;9.95;4.75;;;;;;;8.33;46.55;101643.75;5033713;28;20086;-72
2022/03/09 10:47:43;;;;;;;11.35;5.80;;;;;;;8.39;45.92;101643.00;5001241;28;20044;-73
2022/03/09 10:50:20;;;;;;;8.75;4.63;;;;;;;8.49;46.01;101647.66;5022385;28;20043;-73
2022/03/09 10:53:00;;;;;;;10.43;4.60;;;;;;;8.58;45.70;101634.66;5007583;28;20154;-72
2022/03/09 10:55:27;;;;;;;9.18;4.53;;;;;;;8.67;45.93;101636.56;5029072;28;20388;-73
2022/03/09 10:58:07;;;;;;;11.48;5.10;;;;;;;8.75;45.74;101635.88;5012037;28;20027;-72
2022/03/09 11:00:39;;;;;;;7.95;4.85;;;;;;;8.79;45.02;101623.66;5017869;28;20038;-73
2022/03/09 11:03:14;;;;;;;9.85;5.30;;;;;;;8.85;45.61;101630.78;5035103;28;20069;-73
2022/03/09 11:05:53;;;;;;;9.52;5.85;;;;;;;8.94;45.59;101630.94;5022602;28;20054;-73
2022/03/09 11:08:26;;;;;;;8.27;4.57;;;;;;;9.00;45.46;101628.41;5000301;28;20033;-73
2022/03/09 11:10:51;;;;;;;8.18;4.82;;;;;;;9.13;44.78;101625.13;4997965;28;20049;-73
2022/03/09 11:13:17;;;;;;;10.88;5.50;;;;;;;9.21;45.84;101623.50;4999224;28;20042;-73
2022/03/09 11:15:44;;;;;;;8.88;5.10;;;;;;;9.31;45.58;101621.94;4999895;28;20046;-72
2022/03/09 11:18:14;;;;;;;9.23;4.93;;;;;;;9.39;45.20;101619.41;5001354;28;20038;-73